sensor_id;sensor_type;location;lat;lon;timestamp;P1;durP1;ratioP1;P2;durP2;ratioP2
16510;SDS011;8368;48.772;8.754;2023-11-21T00:00:14;0.60;;;0.60;;
16510;SDS011;8368;48.772;8.754;2023-11-21T00:02:40;0.70;;;0.70;;
16510;SDS011;8368;48.772;8.754;2023-11-21T00:05:12;0.90;;;0.80;;
16510;SDS011;8368;48.772;8.754;2023-11-21T00:07:41;0.93;;;0.60;;
16510;SDS011;8368;48.772;8.754;2023-11-21T00:10:08;0.70;;;0.70;;
16510;SDS011;8368;48.772;8.754;2023-11-21T00:12:35;1.40;;;0.80;;
16510;SDS011;8368;48.772;8.754;2023-11-21T00:15:01;0.80;;;0.80;;
16510;SDS011;8368;48.772;8.754;2023-11-21T00:17:27;1.13;;;0.80;;
16510;SDS011;8368;48.772;8.754;2023-11-21T00:19:53;0.87;;;0.63;;
16510;SDS011;8368;48.772;8.754;2023-11-21T00:22:18;0.70;;;0.70;;
16510;SDS011;8368;48.772;8.754;2023-11-21T00:24:44;0.80;;;0.80;;
16510;SDS011;8368;48.772;8.754;2023-11-21T00:27:10;0.50;;;0.50;;
16510;SDS011;8368;48.772;8.754;2023-11-21T00:29:36;0.90;;;0.60;;
16510;SDS011;8368;48.772;8.754;2023-11-21T00:32:03;1.70;;;0.80;;
16510;SDS011;8368;48.772;8.754;2023-11-21T00:34:30;0.47;;;0.47;;
16510;SDS011;8368;48.772;8.754;2023-11-21T00:36:56;1.17;;;0.70;;
16510;SDS011;8368;48.772;8.754;2023-11-21T00:39:21;0.67;;;0.67;;
16510;SDS011;8368;48.772;8.754;2023-11-21T00:41:47;1.37;;;0.70;;
16510;SDS011;8368;48.772;8.754;2023-11-21T00:44:13;1.23;;;0.70;;
16510;SDS011;8368;48.772;8.754;2023-11-21T00:46:38;1.37;;;0.90;;
16510;SDS011;8368;48.772;8.754;2023-11-21T00:49:04;1.13;;;1.00;;
16510;SDS011;8368;48.772;8.754;2023-11-21T00:51:30;1.40;;;1.00;;
16510;SDS011;8368;48.772;8.754;2023-11-21T00:53:55;0.70;;;0.70;;
16510;SDS011;8368;48.772;8.754;2023-11-21T00:56:21;1.63;;;0.83;;
16510;SDS011;8368;48.772;8.754;2023-11-21T00:58:47;2.57;;;0.87;;
16510;SDS011;8368;48.772;8.754;2023-11-21T01:01:15;2.00;;;0.90;;
16510;SDS011;8368;48.772;8.754;2023-11-21T01:03:41;0.73;;;0.73;;
16510;SDS011;8368;48.772;8.754;2023-11-21T01:06:06;0.80;;;0.80;;
16510;SDS011;8368;48.772;8.754;2023-11-21T01:08:33;0.80;;;0.80;;
16510;SDS011;8368;48.772;8.754;2023-11-21T01:10:59;1.97;;;1.00;;
16510;SDS011;8368;48.772;8.754;2023-11-21T01:13:25;0.80;;;0.80;;
16510;SDS011;8368;48.772;8.754;2023-11-21T01:15:52;0.97;;;0.90;;
16510;SDS011;8368;48.772;8.754;2023-11-21T01:18:18;1.53;;;0.97;;
16510;SDS011;8368;48.772;8.754;2023-11-21T01:20:43;2.30;;;1.00;;
16510;SDS011;8368;48.772;8.754;2023-11-21T01:23:11;1.53;;;1.00;;
16510;SDS011;8368;48.772;8.754;2023-11-21T01:25:37;1.30;;;1.20;;
16510;SDS011;8368;48.772;8.754;2023-11-21T01:28:03;1.17;;;1.10;;
16510;SDS011;8368;48.772;8.754;2023-11-21T01:30:29;3.50;;;1.57;;
16510;SDS011;8368;48.772;8.754;2023-11-21T01:32:54;1.20;;;1.13;;
16510;SDS011;8368;48.772;8.754;2023-11-21T01:35:21;1.57;;;1.27;;
16510;SDS011;8368;48.772;8.754;2023-11-21T01:37:46;1.23;;;1.13;;
16510;SDS011;8368;48.772;8.754;2023-11-21T01:40:13;1.13;;;1.13;;
16510;SDS011;8368;48.772;8.754;2023-11-21T01:42:39;1.80;;;1.10;;
16510;SDS011;8368;48.772;8.754;2023-11-21T01:45:05;2.93;;;1.40;;
16510;SDS011;8368;48.772;8.754;2023-11-21T01:47:32;1.20;;;1.20;;
16510;SDS011;8368;48.772;8.754;2023-11-21T01:49:59;2.70;;;1.00;;
16510;SDS011;8368;48.772;8.754;2023-11-21T01:52:24;2.70;;;1.40;;
16510;SDS011;8368;48.772;8.754;2023-11-21T01:54:50;1.00;;;1.00;;
16510;SDS011;8368;48.772;8.754;2023-11-21T01:57:17;1.20;;;1.20;;
16510;SDS011;8368;48.772;8.754;2023-11-21T01:59:43;2.00;;;1.27;;
16510;SDS011;8368;48.772;8.754;2023-11-21T02:02:11;1.20;;;1.10;;
16510;SDS011;8368;48.772;8.754;2023-11-21T02:04:37;1.37;;;1.20;;
16510;SDS011;8368;48.772;8.754;2023-11-21T02:07:02;2.10;;;1.20;;
16510;SDS011;8368;48.772;8.754;2023-11-21T02:09:31;2.93;;;1.00;;
16510;SDS011;8368;48.772;8.754;2023-11-21T02:11:58;1.07;;;1.07;;
16510;SDS011;8368;48.772;8.754;2023-11-21T02:14:26;1.10;;;1.10;;
16510;SDS011;8368;48.772;8.754;2023-11-21T02:16:53;1.03;;;1.03;;
16510;SDS011;8368;48.772;8.754;2023-11-21T02:19:21;1.10;;;1.10;;
16510;SDS011;8368;48.772;8.754;2023-11-21T02:21:54;1.47;;;1.20;;
16510;SDS011;8368;48.772;8.754;2023-11-21T02:24:25;3.20;;;1.27;;
16510;SDS011;8368;48.772;8.754;2023-11-21T02:26:52;3.17;;;1.20;;
16510;SDS011;8368;48.772;8.754;2023-11-21T02:29:18;1.60;;;1.20;;
16510;SDS011;8368;48.772;8.754;2023-11-21T02:31:46;1.73;;;1.20;;
16510;SDS011;8368;48.772;8.754;2023-11-21T02:34:16;1.80;;;1.30;;
16510;SDS011;8368;48.772;8.754;2023-11-21T02:36:46;1.17;;;1.07;;
16510;SDS011;8368;48.772;8.754;2023-11-21T02:39:14;1.60;;;1.20;;
16510;SDS011;8368;48.772;8.754;2023-11-21T02:41:41;1.27;;;1.17;;
16510;SDS011;8368;48.772;8.754;2023-11-21T02:44:07;1.40;;;1.30;;
16510;SDS011;8368;48.772;8.754;2023-11-21T02:46:33;1.43;;;1.10;;
16510;SDS011;8368;48.772;8.754;2023-11-21T02:48:59;1.23;;;1.23;;
16510;SDS011;8368;48.772;8.754;2023-11-21T02:51:26;1.13;;;1.13;;
16510;SDS011;8368;48.772;8.754;2023-11-21T02:53:51;1.43;;;1.33;;
16510;SDS011;8368;48.772;8.754;2023-11-21T02:56:17;3.73;;;1.20;;
16510;SDS011;8368;48.772;8.754;2023-11-21T02:58:42;1.53;;;1.17;;
16510;SDS011;8368;48.772;8.754;2023-11-21T03:01:09;2.30;;;1.30;;
16510;SDS011;8368;48.772;8.754;2023-11-21T03:03:36;2.00;;;1.60;;
16510;SDS011;8368;48.772;8.754;2023-11-21T03:06:04;1.60;;;1.60;;
16510;SDS011;8368;48.772;8.754;2023-11-21T03:08:29;1.70;;;1.60;;
16510;SDS011;8368;48.772;8.754;2023-11-21T03:10:55;1.90;;;1.47;;
16510;SDS011;8368;48.772;8.754;2023-11-21T03:13:21;1.00;;;1.00;;
16510;SDS011;8368;48.772;8.754;2023-11-21T03:15:46;1.10;;;1.10;;
16510;SDS011;8368;48.772;8.754;2023-11-21T03:18:12;1.80;;;1.70;;
16510;SDS011;8368;48.772;8.754;2023-11-21T03:20:38;1.30;;;1.23;;
16510;SDS011;8368;48.772;8.754;2023-11-21T03:23:03;2.20;;;1.37;;
16510;SDS011;8368;48.772;8.754;2023-11-21T03:25:30;1.57;;;1.30;;
16510;SDS011;8368;48.772;8.754;2023-11-21T03:27:56;1.53;;;1.43;;
16510;SDS011;8368;48.772;8.754;2023-11-21T03:30:21;3.00;;;1.70;;
16510;SDS011;8368;48.772;8.754;2023-11-21T03:32:47;1.70;;;1.70;;
16510;SDS011;8368;48.772;8.754;2023-11-21T03:35:12;2.30;;;1.60;;
16510;SDS011;8368;48.772;8.754;2023-11-21T03:37:38;1.63;;;1.50;;
16510;SDS011;8368;48.772;8.754;2023-11-21T03:40:06;1.60;;;1.47;;
16510;SDS011;8368;48.772;8.754;2023-11-21T03:42:33;1.70;;;1.60;;
16510;SDS011;8368;48.772;8.754;2023-11-21T03:44:59;1.60;;;1.50;;
16510;SDS011;8368;48.772;8.754;2023-11-21T03:47:26;1.70;;;1.70;;
16510;SDS011;8368;48.772;8.754;2023-11-21T03:49:52;1.30;;;1.30;;
16510;SDS011;8368;48.772;8.754;2023-11-21T03:52:18;1.60;;;1.30;;
16510;SDS011;8368;48.772;8.754;2023-11-21T03:54:43;1.80;;;1.67;;
16510;SDS011;8368;48.772;8.754;2023-11-21T03:57:09;1.90;;;1.57;;
16510;SDS011;8368;48.772;8.754;2023-11-21T03:59:35;1.67;;;1.57;;
16510;SDS011;8368;48.772;8.754;2023-11-21T04:02:00;1.90;;;1.80;;
16510;SDS011;8368;48.772;8.754;2023-11-21T04:04:26;2.30;;;1.10;;
16510;SDS011;8368;48.772;8.754;2023-11-21T04:06:51;1.03;;;1.03;;
16510;SDS011;8368;48.772;8.754;2023-11-21T04:09:17;1.70;;;1.40;;
16510;SDS011;8368;48.772;8.754;2023-11-21T04:11:42;1.57;;;1.47;;
16510;SDS011;8368;48.772;8.754;2023-11-21T04:14:10;1.50;;;1.50;;
16510;SDS011;8368;48.772;8.754;2023-11-21T04:16:36;1.77;;;1.67;;
16510;SDS011;8368;48.772;8.754;2023-11-21T04:19:01;1.90;;;1.80;;
16510;SDS011;8368;48.772;8.754;2023-11-21T04:21:27;2.03;;;1.63;;
16510;SDS011;8368;48.772;8.754;2023-11-21T04:23:52;2.30;;;1.30;;
16510;SDS011;8368;48.772;8.754;2023-11-21T04:26:18;1.27;;;1.27;;
16510;SDS011;8368;48.772;8.754;2023-11-21T04:28:43;1.57;;;1.03;;
16510;SDS011;8368;48.772;8.754;2023-11-21T04:31:09;1.20;;;1.10;;
16510;SDS011;8368;48.772;8.754;2023-11-21T04:33:35;1.03;;;1.03;;
16510;SDS011;8368;48.772;8.754;2023-11-21T04:36:00;1.00;;;1.00;;
16510;SDS011;8368;48.772;8.754;2023-11-21T04:38:26;1.60;;;0.90;;
16510;SDS011;8368;48.772;8.754;2023-11-21T04:40:51;1.27;;;1.00;;
16510;SDS011;8368;48.772;8.754;2023-11-21T04:43:17;0.97;;;0.97;;
16510;SDS011;8368;48.772;8.754;2023-11-21T04:45:43;1.10;;;1.10;;
16510;SDS011;8368;48.772;8.754;2023-11-21T04:48:09;0.90;;;0.90;;
16510;SDS011;8368;48.772;8.754;2023-11-21T04:50:35;1.07;;;1.07;;
16510;SDS011;8368;48.772;8.754;2023-11-21T04:53:00;1.80;;;1.30;;
16510;SDS011;8368;48.772;8.754;2023-11-21T04:55:26;1.00;;;1.00;;
16510;SDS011;8368;48.772;8.754;2023-11-21T04:57:53;1.13;;;1.00;;
16510;SDS011;8368;48.772;8.754;2023-11-21T05:00:18;1.30;;;1.20;;
16510;SDS011;8368;48.772;8.754;2023-11-21T05:02:46;1.10;;;1.10;;
16510;SDS011;8368;48.772;8.754;2023-11-21T05:05:11;0.83;;;0.83;;
16510;SDS011;8368;48.772;8.754;2023-11-21T05:07:37;0.90;;;0.90;;
16510;SDS011;8368;48.772;8.754;2023-11-21T05:10:05;0.80;;;0.80;;
16510;SDS011;8368;48.772;8.754;2023-11-21T05:12:36;1.60;;;1.20;;
16510;SDS011;8368;48.772;8.754;2023-11-21T05:15:03;0.87;;;0.87;;
16510;SDS011;8368;48.772;8.754;2023-11-21T05:17:33;1.20;;;1.20;;
16510;SDS011;8368;48.772;8.754;2023-11-21T05:19:59;1.50;;;1.40;;
16510;SDS011;8368;48.772;8.754;2023-11-21T05:22:28;1.40;;;1.30;;
16510;SDS011;8368;48.772;8.754;2023-11-21T05:24:54;1.50;;;1.30;;
16510;SDS011;8368;48.772;8.754;2023-11-21T05:27:19;1.30;;;1.30;;
16510;SDS011;8368;48.772;8.754;2023-11-21T05:29:45;1.20;;;1.20;;
16510;SDS011;8368;48.772;8.754;2023-11-21T05:32:10;1.83;;;1.73;;
16510;SDS011;8368;48.772;8.754;2023-11-21T05:34:36;1.50;;;1.50;;
16510;SDS011;8368;48.772;8.754;2023-11-21T05:37:01;1.50;;;1.40;;
16510;SDS011;8368;48.772;8.754;2023-11-21T05:39:27;2.03;;;1.63;;
16510;SDS011;8368;48.772;8.754;2023-11-21T05:41:53;1.67;;;1.67;;
16510;SDS011;8368;48.772;8.754;2023-11-21T05:44:18;1.90;;;1.80;;
16510;SDS011;8368;48.772;8.754;2023-11-21T05:46:44;2.07;;;1.90;;
16510;SDS011;8368;48.772;8.754;2023-11-21T05:49:10;2.10;;;1.90;;
16510;SDS011;8368;48.772;8.754;2023-11-21T05:51:36;2.37;;;2.27;;
16510;SDS011;8368;48.772;8.754;2023-11-21T05:54:02;2.73;;;2.57;;
16510;SDS011;8368;48.772;8.754;2023-11-21T05:56:28;4.30;;;2.73;;
16510;SDS011;8368;48.772;8.754;2023-11-21T05:58:54;2.70;;;2.60;;
16510;SDS011;8368;48.772;8.754;2023-11-21T06:01:19;3.00;;;2.30;;
16510;SDS011;8368;48.772;8.754;2023-11-21T06:03:44;3.37;;;3.07;;
16510;SDS011;8368;48.772;8.754;2023-11-21T06:06:10;4.63;;;3.83;;
16510;SDS011;8368;48.772;8.754;2023-11-21T06:08:36;12.23;;;5.73;;
16510;SDS011;8368;48.772;8.754;2023-11-21T06:11:01;27.27;;;11.47;;
16510;SDS011;8368;48.772;8.754;2023-11-21T06:13:27;6.63;;;4.90;;
16510;SDS011;8368;48.772;8.754;2023-11-21T06:15:52;3.33;;;3.13;;
16510;SDS011;8368;48.772;8.754;2023-11-21T06:18:18;2.60;;;2.30;;
16510;SDS011;8368;48.772;8.754;2023-11-21T06:20:45;2.10;;;2.10;;
16510;SDS011;8368;48.772;8.754;2023-11-21T06:23:11;2.40;;;2.27;;
16510;SDS011;8368;48.772;8.754;2023-11-21T06:25:36;2.33;;;2.23;;
16510;SDS011;8368;48.772;8.754;2023-11-21T06:28:02;3.17;;;2.57;;
16510;SDS011;8368;48.772;8.754;2023-11-21T06:30:27;2.90;;;2.33;;
16510;SDS011;8368;48.772;8.754;2023-11-21T06:32:53;2.00;;;1.90;;
16510;SDS011;8368;48.772;8.754;2023-11-21T06:35:20;2.60;;;2.50;;
16510;SDS011;8368;48.772;8.754;2023-11-21T06:37:45;4.23;;;3.70;;
16510;SDS011;8368;48.772;8.754;2023-11-21T06:40:12;4.13;;;3.73;;
16510;SDS011;8368;48.772;8.754;2023-11-21T06:42:43;3.57;;;3.27;;
16510;SDS011;8368;48.772;8.754;2023-11-21T06:45:09;3.27;;;3.00;;
16510;SDS011;8368;48.772;8.754;2023-11-21T06:47:35;3.37;;;3.07;;
16510;SDS011;8368;48.772;8.754;2023-11-21T06:50:02;3.17;;;2.90;;
16510;SDS011;8368;48.772;8.754;2023-11-21T06:52:28;3.50;;;3.07;;
16510;SDS011;8368;48.772;8.754;2023-11-21T06:54:54;3.47;;;3.27;;
16510;SDS011;8368;48.772;8.754;2023-11-21T06:57:20;4.03;;;3.83;;
16510;SDS011;8368;48.772;8.754;2023-11-21T06:59:45;4.03;;;3.73;;
16510;SDS011;8368;48.772;8.754;2023-11-21T07:02:11;3.60;;;3.40;;
16510;SDS011;8368;48.772;8.754;2023-11-21T07:04:36;2.63;;;2.53;;
16510;SDS011;8368;48.772;8.754;2023-11-21T07:07:02;3.23;;;3.00;;
16510;SDS011;8368;48.772;8.754;2023-11-21T07:09:28;3.13;;;2.73;;
16510;SDS011;8368;48.772;8.754;2023-11-21T07:11:54;3.33;;;3.10;;
16510;SDS011;8368;48.772;8.754;2023-11-21T07:14:20;3.47;;;3.17;;
16510;SDS011;8368;48.772;8.754;2023-11-21T07:16:46;3.27;;;3.07;;
16510;SDS011;8368;48.772;8.754;2023-11-21T07:19:12;2.83;;;2.73;;
16510;SDS011;8368;48.772;8.754;2023-11-21T07:21:38;2.60;;;2.40;;
16510;SDS011;8368;48.772;8.754;2023-11-21T07:24:05;2.87;;;2.33;;
16510;SDS011;8368;48.772;8.754;2023-11-21T07:26:32;2.20;;;2.10;;
16510;SDS011;8368;48.772;8.754;2023-11-21T07:28:59;1.90;;;1.80;;
16510;SDS011;8368;48.772;8.754;2023-11-21T07:31:25;1.90;;;1.90;;
16510;SDS011;8368;48.772;8.754;2023-11-21T07:33:51;2.00;;;1.90;;
16510;SDS011;8368;48.772;8.754;2023-11-21T07:36:16;1.50;;;1.30;;
16510;SDS011;8368;48.772;8.754;2023-11-21T07:38:48;1.50;;;1.40;;
16510;SDS011;8368;48.772;8.754;2023-11-21T07:41:15;1.50;;;1.40;;
16510;SDS011;8368;48.772;8.754;2023-11-21T07:43:41;2.27;;;1.10;;
16510;SDS011;8368;48.772;8.754;2023-11-21T07:46:06;1.30;;;1.30;;
16510;SDS011;8368;48.772;8.754;2023-11-21T07:48:33;1.40;;;1.40;;
16510;SDS011;8368;48.772;8.754;2023-11-21T07:50:59;1.20;;;1.20;;
16510;SDS011;8368;48.772;8.754;2023-11-21T07:53:25;2.20;;;1.40;;
16510;SDS011;8368;48.772;8.754;2023-11-21T07:55:53;1.50;;;1.40;;
16510;SDS011;8368;48.772;8.754;2023-11-21T07:58:19;1.50;;;1.50;;
16510;SDS011;8368;48.772;8.754;2023-11-21T08:00:45;1.33;;;1.33;;
16510;SDS011;8368;48.772;8.754;2023-11-21T08:03:13;1.70;;;1.60;;
16510;SDS011;8368;48.772;8.754;2023-11-21T08:05:39;1.60;;;1.50;;
16510;SDS011;8368;48.772;8.754;2023-11-21T08:08:04;1.50;;;1.40;;
16510;SDS011;8368;48.772;8.754;2023-11-21T08:10:30;1.40;;;1.40;;
16510;SDS011;8368;48.772;8.754;2023-11-21T08:12:55;1.80;;;1.70;;
16510;SDS011;8368;48.772;8.754;2023-11-21T08:15:21;1.60;;;1.60;;
16510;SDS011;8368;48.772;8.754;2023-11-21T08:17:47;1.50;;;1.50;;
16510;SDS011;8368;48.772;8.754;2023-11-21T08:20:13;1.83;;;1.83;;
16510;SDS011;8368;48.772;8.754;2023-11-21T08:22:42;1.77;;;1.77;;
16510;SDS011;8368;48.772;8.754;2023-11-21T08:25:08;1.63;;;1.63;;
16510;SDS011;8368;48.772;8.754;2023-11-21T08:27:40;1.80;;;1.70;;
16510;SDS011;8368;48.772;8.754;2023-11-21T08:30:06;1.40;;;1.40;;
16510;SDS011;8368;48.772;8.754;2023-11-21T08:32:32;1.50;;;1.40;;
16510;SDS011;8368;48.772;8.754;2023-11-21T08:34:58;1.33;;;1.10;;
16510;SDS011;8368;48.772;8.754;2023-11-21T08:37:25;1.20;;;1.20;;
16510;SDS011;8368;48.772;8.754;2023-11-21T08:39:52;0.90;;;0.90;;
16510;SDS011;8368;48.772;8.754;2023-11-21T08:42:18;1.10;;;1.10;;
16510;SDS011;8368;48.772;8.754;2023-11-21T08:44:43;0.70;;;0.70;;
16510;SDS011;8368;48.772;8.754;2023-11-21T08:47:09;0.90;;;0.90;;
16510;SDS011;8368;48.772;8.754;2023-11-21T08:49:35;0.90;;;0.90;;
16510;SDS011;8368;48.772;8.754;2023-11-21T08:52:00;1.27;;;1.20;;
16510;SDS011;8368;48.772;8.754;2023-11-21T08:54:26;1.30;;;1.20;;
16510;SDS011;8368;48.772;8.754;2023-11-21T08:56:52;1.30;;;1.30;;
16510;SDS011;8368;48.772;8.754;2023-11-21T08:59:18;0.90;;;0.90;;
16510;SDS011;8368;48.772;8.754;2023-11-21T09:01:45;1.00;;;1.00;;
16510;SDS011;8368;48.772;8.754;2023-11-21T09:04:11;0.53;;;0.53;;
16510;SDS011;8368;48.772;8.754;2023-11-21T09:06:37;0.40;;;0.40;;
16510;SDS011;8368;48.772;8.754;2023-11-21T09:09:03;0.50;;;0.50;;
16510;SDS011;8368;48.772;8.754;2023-11-21T09:11:30;0.37;;;0.37;;
16510;SDS011;8368;48.772;8.754;2023-11-21T09:13:59;0.50;;;0.50;;
16510;SDS011;8368;48.772;8.754;2023-11-21T09:16:25;0.50;;;0.50;;
16510;SDS011;8368;48.772;8.754;2023-11-21T09:18:51;0.60;;;0.60;;
16510;SDS011;8368;48.772;8.754;2023-11-21T09:21:16;0.80;;;0.80;;
16510;SDS011;8368;48.772;8.754;2023-11-21T09:23:43;1.37;;;1.37;;
16510;SDS011;8368;48.772;8.754;2023-11-21T09:26:09;3.90;;;2.47;;
16510;SDS011;8368;48.772;8.754;2023-11-21T09:28:35;1.00;;;1.00;;
16510;SDS011;8368;48.772;8.754;2023-11-21T09:31:03;1.30;;;1.30;;
16510;SDS011;8368;48.772;8.754;2023-11-21T09:33:33;1.40;;;1.40;;
16510;SDS011;8368;48.772;8.754;2023-11-21T09:35:59;1.17;;;1.13;;
16510;SDS011;8368;48.772;8.754;2023-11-21T09:38:24;0.77;;;0.70;;
16510;SDS011;8368;48.772;8.754;2023-11-21T09:40:50;0.57;;;0.57;;
16510;SDS011;8368;48.772;8.754;2023-11-21T09:43:17;0.90;;;0.90;;
16510;SDS011;8368;48.772;8.754;2023-11-21T09:45:47;0.70;;;0.70;;
16510;SDS011;8368;48.772;8.754;2023-11-21T09:48:18;1.07;;;1.00;;
16510;SDS011;8368;48.772;8.754;2023-11-21T09:50:45;0.60;;;0.60;;
16510;SDS011;8368;48.772;8.754;2023-11-21T09:53:19;0.80;;;0.80;;
16510;SDS011;8368;48.772;8.754;2023-11-21T09:55:50;0.70;;;0.70;;
16510;SDS011;8368;48.772;8.754;2023-11-21T09:58:17;0.70;;;0.70;;
16510;SDS011;8368;48.772;8.754;2023-11-21T10:00:45;0.70;;;0.70;;
16510;SDS011;8368;48.772;8.754;2023-11-21T10:03:14;1.00;;;1.00;;
16510;SDS011;8368;48.772;8.754;2023-11-21T10:05:44;0.70;;;0.70;;
16510;SDS011;8368;48.772;8.754;2023-11-21T10:08:13;0.80;;;0.70;;
16510;SDS011;8368;48.772;8.754;2023-11-21T10:10:43;0.60;;;0.60;;
16510;SDS011;8368;48.772;8.754;2023-11-21T10:13:10;0.60;;;0.60;;
16510;SDS011;8368;48.772;8.754;2023-11-21T10:15:37;0.50;;;0.50;;
16510;SDS011;8368;48.772;8.754;2023-11-21T10:18:03;0.60;;;0.60;;
16510;SDS011;8368;48.772;8.754;2023-11-21T10:20:31;0.63;;;0.63;;
16510;SDS011;8368;48.772;8.754;2023-11-21T10:23:02;0.53;;;0.53;;
16510;SDS011;8368;48.772;8.754;2023-11-21T10:25:28;0.50;;;0.50;;
16510;SDS011;8368;48.772;8.754;2023-11-21T10:27:57;1.07;;;0.30;;
16510;SDS011;8368;48.772;8.754;2023-11-21T10:30:34;0.53;;;0.53;;
16510;SDS011;8368;48.772;8.754;2023-11-21T10:33:02;0.40;;;0.40;;
16510;SDS011;8368;48.772;8.754;2023-11-21T10:35:38;0.50;;;0.50;;
16510;SDS011;8368;48.772;8.754;2023-11-21T10:38:18;0.67;;;0.67;;
16510;SDS011;8368;48.772;8.754;2023-11-21T10:40:46;0.70;;;0.70;;
16510;SDS011;8368;48.772;8.754;2023-11-21T10:43:13;0.70;;;0.70;;
16510;SDS011;8368;48.772;8.754;2023-11-21T10:45:40;0.73;;;0.60;;
16510;SDS011;8368;48.772;8.754;2023-11-21T10:48:07;1.30;;;1.30;;
16510;SDS011;8368;48.772;8.754;2023-11-21T10:50:34;2.20;;;2.10;;
16510;SDS011;8368;48.772;8.754;2023-11-21T10:53:04;1.30;;;1.30;;
16510;SDS011;8368;48.772;8.754;2023-11-21T10:55:30;2.00;;;1.90;;
16510;SDS011;8368;48.772;8.754;2023-11-21T10:58:01;13.83;;;9.50;;
16510;SDS011;8368;48.772;8.754;2023-11-21T11:00:28;1.90;;;1.80;;
16510;SDS011;8368;48.772;8.754;2023-11-21T11:02:54;1.97;;;1.87;;
16510;SDS011;8368;48.772;8.754;2023-11-21T11:05:21;2.33;;;2.23;;
16510;SDS011;8368;48.772;8.754;2023-11-21T11:07:50;2.90;;;2.70;;
16510;SDS011;8368;48.772;8.754;2023-11-21T11:10:24;3.80;;;3.27;;
16510;SDS011;8368;48.772;8.754;2023-11-21T11:12:52;3.10;;;2.90;;
16510;SDS011;8368;48.772;8.754;2023-11-21T11:15:25;3.50;;;3.20;;
16510;SDS011;8368;48.772;8.754;2023-11-21T11:17:51;6.33;;;5.77;;
16510;SDS011;8368;48.772;8.754;2023-11-21T11:20:22;3.43;;;3.13;;
16510;SDS011;8368;48.772;8.754;2023-11-21T11:25:33;2.70;;;2.60;;
16510;SDS011;8368;48.772;8.754;2023-11-21T11:28:22;3.07;;;2.90;;
16510;SDS011;8368;48.772;8.754;2023-11-21T11:31:25;2.90;;;2.70;;
16510;SDS011;8368;48.772;8.754;2023-11-21T11:36:49;3.37;;;3.17;;
16510;SDS011;8368;48.772;8.754;2023-11-21T11:39:34;5.03;;;4.37;;
16510;SDS011;8368;48.772;8.754;2023-11-21T11:42:16;5.30;;;4.80;;
16510;SDS011;8368;48.772;8.754;2023-11-21T11:47:14;5.13;;;4.63;;
16510;SDS011;8368;48.772;8.754;2023-11-21T11:50:01;5.83;;;4.93;;
16510;SDS011;8368;48.772;8.754;2023-11-21T11:52:48;5.80;;;5.20;;
16510;SDS011;8368;48.772;8.754;2023-11-21T11:55:17;6.07;;;4.77;;
16510;SDS011;8368;48.772;8.754;2023-11-21T11:57:44;5.17;;;4.73;;
16510;SDS011;8368;48.772;8.754;2023-11-21T12:02:42;5.60;;;5.00;;
16510;SDS011;8368;48.772;8.754;2023-11-21T12:05:14;5.30;;;4.80;;
16510;SDS011;8368;48.772;8.754;2023-11-21T12:07:43;5.53;;;5.03;;
16510;SDS011;8368;48.772;8.754;2023-11-21T12:10:11;6.43;;;5.63;;
16510;SDS011;8368;48.772;8.754;2023-11-21T12:12:49;6.90;;;5.87;;
16510;SDS011;8368;48.772;8.754;2023-11-21T12:15:23;5.53;;;5.00;;
16510;SDS011;8368;48.772;8.754;2023-11-21T12:17:50;6.47;;;4.97;;
16510;SDS011;8368;48.772;8.754;2023-11-21T12:20:21;4.37;;;3.87;;
16510;SDS011;8368;48.772;8.754;2023-11-21T12:22:48;3.87;;;3.53;;
16510;SDS011;8368;48.772;8.754;2023-11-21T12:25:21;2.53;;;2.43;;
16510;SDS011;8368;48.772;8.754;2023-11-21T12:27:54;3.20;;;3.00;;
16510;SDS011;8368;48.772;8.754;2023-11-21T12:30:21;2.00;;;1.90;;
16510;SDS011;8368;48.772;8.754;2023-11-21T12:32:52;1.93;;;1.83;;
16510;SDS011;8368;48.772;8.754;2023-11-21T12:35:19;2.10;;;2.00;;
16510;SDS011;8368;48.772;8.754;2023-11-21T12:37:46;3.10;;;2.90;;
16510;SDS011;8368;48.772;8.754;2023-11-21T12:40:13;3.70;;;3.40;;
16510;SDS011;8368;48.772;8.754;2023-11-21T12:42:43;3.53;;;3.17;;
16510;SDS011;8368;48.772;8.754;2023-11-21T12:47:49;3.83;;;3.50;;
16510;SDS011;8368;48.772;8.754;2023-11-21T12:50:23;5.13;;;4.63;;
16510;SDS011;8368;48.772;8.754;2023-11-21T12:52:53;7.17;;;4.70;;
16510;SDS011;8368;48.772;8.754;2023-11-21T12:55:22;6.30;;;5.17;;
16510;SDS011;8368;48.772;8.754;2023-11-21T12:57:49;7.97;;;5.77;;
16510;SDS011;8368;48.772;8.754;2023-11-21T13:03:19;9.00;;;6.33;;
16510;SDS011;8368;48.772;8.754;2023-11-21T13:05:48;8.93;;;6.83;;
16510;SDS011;8368;48.772;8.754;2023-11-21T13:08:19;8.40;;;6.10;;
16510;SDS011;8368;48.772;8.754;2023-11-21T13:10:48;9.43;;;6.57;;
16510;SDS011;8368;48.772;8.754;2023-11-21T13:13:20;8.20;;;7.17;;
16510;SDS011;8368;48.772;8.754;2023-11-21T13:15:49;10.07;;;7.30;;
16510;SDS011;8368;48.772;8.754;2023-11-21T13:18:22;9.67;;;6.90;;
16510;SDS011;8368;48.772;8.754;2023-11-21T13:20:49;8.47;;;6.67;;
16510;SDS011;8368;48.772;8.754;2023-11-21T13:23:15;9.97;;;7.07;;
16510;SDS011;8368;48.772;8.754;2023-11-21T13:25:41;5.97;;;4.73;;
16510;SDS011;8368;48.772;8.754;2023-11-21T13:28:10;4.70;;;4.30;;
16510;SDS011;8368;48.772;8.754;2023-11-21T13:30:36;6.00;;;4.40;;
16510;SDS011;8368;48.772;8.754;2023-11-21T13:33:02;5.43;;;4.07;;
16510;SDS011;8368;48.772;8.754;2023-11-21T13:35:32;2.70;;;2.50;;
16510;SDS011;8368;48.772;8.754;2023-11-21T13:38:09;2.80;;;2.60;;
16510;SDS011;8368;48.772;8.754;2023-11-21T13:40:36;2.70;;;2.50;;
16510;SDS011;8368;48.772;8.754;2023-11-21T13:43:09;2.73;;;2.63;;
16510;SDS011;8368;48.772;8.754;2023-11-21T13:45:36;4.13;;;3.63;;
16510;SDS011;8368;48.772;8.754;2023-11-21T13:48:04;2.43;;;2.23;;
16510;SDS011;8368;48.772;8.754;2023-11-21T13:50:34;3.40;;;3.10;;
16510;SDS011;8368;48.772;8.754;2023-11-21T13:53:04;5.10;;;4.60;;
16510;SDS011;8368;48.772;8.754;2023-11-21T13:55:41;5.77;;;5.13;;
16510;SDS011;8368;48.772;8.754;2023-11-21T13:58:07;4.17;;;3.80;;
16510;SDS011;8368;48.772;8.754;2023-11-21T14:00:36;5.77;;;4.60;;
16510;SDS011;8368;48.772;8.754;2023-11-21T14:03:12;3.10;;;2.90;;
16510;SDS011;8368;48.772;8.754;2023-11-21T14:05:46;3.20;;;2.90;;
16510;SDS011;8368;48.772;8.754;2023-11-21T14:08:15;2.73;;;2.57;;
16510;SDS011;8368;48.772;8.754;2023-11-21T14:10:45;2.10;;;2.00;;
16510;SDS011;8368;48.772;8.754;2023-11-21T14:13:16;2.80;;;2.60;;
16510;SDS011;8368;48.772;8.754;2023-11-21T14:15:42;2.43;;;2.30;;
16510;SDS011;8368;48.772;8.754;2023-11-21T14:18:10;2.50;;;2.30;;
16510;SDS011;8368;48.772;8.754;2023-11-21T14:20:39;2.70;;;2.10;;
16510;SDS011;8368;48.772;8.754;2023-11-21T14:23:06;2.13;;;2.03;;
16510;SDS011;8368;48.772;8.754;2023-11-21T14:25:34;2.17;;;2.07;;
16510;SDS011;8368;48.772;8.754;2023-11-21T14:28:05;2.63;;;2.43;;
16510;SDS011;8368;48.772;8.754;2023-11-21T14:30:36;2.10;;;2.00;;
16510;SDS011;8368;48.772;8.754;2023-11-21T14:33:04;2.17;;;2.07;;
16510;SDS011;8368;48.772;8.754;2023-11-21T14:35:29;2.60;;;2.50;;
16510;SDS011;8368;48.772;8.754;2023-11-21T14:37:58;13.67;;;8.90;;
16510;SDS011;8368;48.772;8.754;2023-11-21T14:40:25;7.93;;;6.53;;
16510;SDS011;8368;48.772;8.754;2023-11-21T14:42:54;3.50;;;3.30;;
16510;SDS011;8368;48.772;8.754;2023-11-21T14:45:22;2.40;;;2.30;;
16510;SDS011;8368;48.772;8.754;2023-11-21T14:47:51;2.90;;;2.70;;
16510;SDS011;8368;48.772;8.754;2023-11-21T14:50:35;1.70;;;1.60;;
16510;SDS011;8368;48.772;8.754;2023-11-21T14:53:06;1.67;;;1.30;;
16510;SDS011;8368;48.772;8.754;2023-11-21T14:55:33;2.00;;;1.00;;
16510;SDS011;8368;48.772;8.754;2023-11-21T14:58:17;0.80;;;0.80;;
16510;SDS011;8368;48.772;8.754;2023-11-21T15:00:53;0.90;;;0.90;;
16510;SDS011;8368;48.772;8.754;2023-11-21T15:03:23;1.10;;;1.10;;
16510;SDS011;8368;48.772;8.754;2023-11-21T15:05:56;1.27;;;1.27;;
16510;SDS011;8368;48.772;8.754;2023-11-21T15:08:43;1.10;;;1.10;;
16510;SDS011;8368;48.772;8.754;2023-11-21T15:11:39;1.80;;;1.80;;
16510;SDS011;8368;48.772;8.754;2023-11-21T15:14:05;1.20;;;1.10;;
16510;SDS011;8368;48.772;8.754;2023-11-21T15:16:34;1.30;;;1.30;;
16510;SDS011;8368;48.772;8.754;2023-11-21T15:19:06;1.60;;;1.50;;